sensor_id;sensor_type;location;lat;lon;timestamp;P1;durP1;ratioP1;P2;durP2;ratioP2
78860;SDS011;68211;45.774;15.892;2023-08-20T00:00:54;61.55;;;44.67;;
78860;SDS011;68211;45.774;15.892;2023-08-20T00:03:21;65.07;;;44.17;;
78860;SDS011;68211;45.774;15.892;2023-08-20T00:05:48;72.57;;;47.75;;
78860;SDS011;68211;45.774;15.892;2023-08-20T00:08:14;69.97;;;46.90;;
78860;SDS011;68211;45.774;15.892;2023-08-20T00:10:41;70.72;;;46.05;;
78860;SDS011;68211;45.774;15.892;2023-08-20T00:13:09;71.30;;;48.42;;
78860;SDS011;68211;45.774;15.892;2023-08-20T00:15:35;66.55;;;46.17;;
78860;SDS011;68211;45.774;15.892;2023-08-20T00:18:02;64.90;;;44.42;;
78860;SDS011;68211;45.774;15.892;2023-08-20T00:20:29;67.68;;;45.65;;
78860;SDS011;68211;45.774;15.892;2023-08-20T00:22:56;72.47;;;44.08;;
78860;SDS011;68211;45.774;15.892;2023-08-20T00:25:22;63.17;;;43.40;;
78860;SDS011;68211;45.774;15.892;2023-08-20T00:27:49;67.65;;;46.33;;
78860;SDS011;68211;45.774;15.892;2023-08-20T00:30:17;70.82;;;48.10;;
78860;SDS011;68211;45.774;15.892;2023-08-20T00:32:44;73.13;;;48.35;;
78860;SDS011;68211;45.774;15.892;2023-08-20T00:35:11;77.47;;;49.33;;
78860;SDS011;68211;45.774;15.892;2023-08-20T00:37:37;68.43;;;45.20;;
78860;SDS011;68211;45.774;15.892;2023-08-20T00:40:04;68.75;;;47.60;;
78860;SDS011;68211;45.774;15.892;2023-08-20T00:42:31;72.88;;;47.40;;
78860;SDS011;68211;45.774;15.892;2023-08-20T00:44:57;62.00;;;42.85;;
78860;SDS011;68211;45.774;15.892;2023-08-20T00:47:25;68.65;;;44.95;;
78860;SDS011;68211;45.774;15.892;2023-08-20T00:49:52;61.53;;;43.70;;
78860;SDS011;68211;45.774;15.892;2023-08-20T00:52:19;71.75;;;49.38;;
78860;SDS011;68211;45.774;15.892;2023-08-20T00:54:47;74.50;;;50.03;;
78860;SDS011;68211;45.774;15.892;2023-08-20T00:57:13;85.32;;;55.00;;
78860;SDS011;68211;45.774;15.892;2023-08-20T00:59:40;95.43;;;58.85;;
78860;SDS011;68211;45.774;15.892;2023-08-20T01:02:07;83.05;;;55.25;;
78860;SDS011;68211;45.774;15.892;2023-08-20T01:04:35;88.38;;;57.92;;
78860;SDS011;68211;45.774;15.892;2023-08-20T01:07:02;93.05;;;56.97;;
78860;SDS011;68211;45.774;15.892;2023-08-20T01:12:12;84.03;;;53.20;;
78860;SDS011;68211;45.774;15.892;2023-08-20T01:14:40;78.60;;;52.33;;
78860;SDS011;68211;45.774;15.892;2023-08-20T01:17:06;82.35;;;54.63;;
78860;SDS011;68211;45.774;15.892;2023-08-20T01:19:34;88.50;;;56.17;;
78860;SDS011;68211;45.774;15.892;2023-08-20T01:22:06;83.90;;;53.85;;
78860;SDS011;68211;45.774;15.892;2023-08-20T01:24:38;80.70;;;54.15;;
78860;SDS011;68211;45.774;15.892;2023-08-20T01:27:24;87.53;;;53.83;;
78860;SDS011;68211;45.774;15.892;2023-08-20T01:29:54;80.03;;;51.00;;
78860;SDS011;68211;45.774;15.892;2023-08-20T01:32:21;78.28;;;49.47;;
78860;SDS011;68211;45.774;15.892;2023-08-20T01:34:48;73.28;;;49.83;;
78860;SDS011;68211;45.774;15.892;2023-08-20T01:37:15;74.28;;;49.65;;
78860;SDS011;68211;45.774;15.892;2023-08-20T01:39:41;72.13;;;47.72;;
78860;SDS011;68211;45.774;15.892;2023-08-20T01:42:08;69.93;;;47.25;;
78860;SDS011;68211;45.774;15.892;2023-08-20T01:44:34;74.25;;;48.70;;
78860;SDS011;68211;45.774;15.892;2023-08-20T01:47:02;69.97;;;47.40;;
78860;SDS011;68211;45.774;15.892;2023-08-20T01:49:29;68.90;;;46.40;;
78860;SDS011;68211;45.774;15.892;2023-08-20T01:51:55;69.13;;;48.40;;
78860;SDS011;68211;45.774;15.892;2023-08-20T01:54:22;75.10;;;46.95;;
78860;SDS011;68211;45.774;15.892;2023-08-20T01:56:48;70.10;;;45.38;;
78860;SDS011;68211;45.774;15.892;2023-08-20T01:59:15;61.88;;;45.03;;
78860;SDS011;68211;45.774;15.892;2023-08-20T02:01:41;66.90;;;44.72;;
78860;SDS011;68211;45.774;15.892;2023-08-20T02:04:09;65.22;;;44.55;;
78860;SDS011;68211;45.774;15.892;2023-08-20T02:06:35;66.43;;;43.47;;
78860;SDS011;68211;45.774;15.892;2023-08-20T02:09:02;60.65;;;43.78;;
78860;SDS011;68211;45.774;15.892;2023-08-20T02:11:29;69.15;;;45.13;;
78860;SDS011;68211;45.774;15.892;2023-08-20T02:13:55;68.28;;;45.55;;
78860;SDS011;68211;45.774;15.892;2023-08-20T02:16:21;68.38;;;45.50;;
78860;SDS011;68211;45.774;15.892;2023-08-20T02:18:48;69.13;;;45.08;;
78860;SDS011;68211;45.774;15.892;2023-08-20T02:21:16;64.35;;;44.53;;
78860;SDS011;68211;45.774;15.892;2023-08-20T02:23:42;68.25;;;46.72;;
78860;SDS011;68211;45.774;15.892;2023-08-20T02:26:09;68.95;;;45.20;;
78860;SDS011;68211;45.774;15.892;2023-08-20T02:28:35;65.65;;;44.35;;
78860;SDS011;68211;45.774;15.892;2023-08-20T02:31:03;63.97;;;45.50;;
78860;SDS011;68211;45.774;15.892;2023-08-20T02:33:30;66.97;;;42.10;;
78860;SDS011;68211;45.774;15.892;2023-08-20T02:36:00;64.68;;;42.83;;
78860;SDS011;68211;45.774;15.892;2023-08-20T02:38:28;63.90;;;41.28;;
78860;SDS011;68211;45.774;15.892;2023-08-20T02:40:54;59.60;;;42.35;;
78860;SDS011;68211;45.774;15.892;2023-08-20T02:43:21;64.90;;;42.78;;
78860;SDS011;68211;45.774;15.892;2023-08-20T02:45:48;62.95;;;43.05;;
78860;SDS011;68211;45.774;15.892;2023-08-20T02:48:15;69.13;;;43.08;;
78860;SDS011;68211;45.774;15.892;2023-08-20T02:53:11;66.80;;;43.38;;
78860;SDS011;68211;45.774;15.892;2023-08-20T02:55:39;68.40;;;43.90;;
78860;SDS011;68211;45.774;15.892;2023-08-20T02:58:05;71.75;;;45.15;;
78860;SDS011;68211;45.774;15.892;2023-08-20T03:00:32;61.85;;;43.08;;
78860;SDS011;68211;45.774;15.892;2023-08-20T03:02:58;64.25;;;42.78;;
78860;SDS011;68211;45.774;15.892;2023-08-20T03:05:25;71.60;;;43.95;;
78860;SDS011;68211;45.774;15.892;2023-08-20T03:07:51;70.63;;;47.72;;
78860;SDS011;68211;45.774;15.892;2023-08-20T03:10:18;69.15;;;46.45;;
78860;SDS011;68211;45.774;15.892;2023-08-20T03:12:45;71.65;;;47.90;;
78860;SDS011;68211;45.774;15.892;2023-08-20T03:15:12;68.15;;;45.97;;
78860;SDS011;68211;45.774;15.892;2023-08-20T03:17:38;77.05;;;48.25;;
78860;SDS011;68211;45.774;15.892;2023-08-20T03:20:06;75.25;;;47.83;;
78860;SDS011;68211;45.774;15.892;2023-08-20T03:22:33;78.82;;;50.95;;
78860;SDS011;68211;45.774;15.892;2023-08-20T03:24:59;73.22;;;49.33;;
78860;SDS011;68211;45.774;15.892;2023-08-20T03:27:26;72.28;;;47.25;;
78860;SDS011;68211;45.774;15.892;2023-08-20T03:29:54;70.32;;;47.25;;
78860;SDS011;68211;45.774;15.892;2023-08-20T03:32:20;68.55;;;45.63;;
78860;SDS011;68211;45.774;15.892;2023-08-20T03:34:47;63.05;;;43.25;;
78860;SDS011;68211;45.774;15.892;2023-08-20T03:37:13;70.32;;;47.92;;
78860;SDS011;68211;45.774;15.892;2023-08-20T03:39:39;64.18;;;45.80;;
78860;SDS011;68211;45.774;15.892;2023-08-20T03:42:06;65.55;;;44.03;;
78860;SDS011;68211;45.774;15.892;2023-08-20T03:44:32;69.15;;;47.58;;
78860;SDS011;68211;45.774;15.892;2023-08-20T03:47:02;61.78;;;43.25;;
78860;SDS011;68211;45.774;15.892;2023-08-20T03:49:28;68.55;;;44.45;;
78860;SDS011;68211;45.774;15.892;2023-08-20T03:51:55;71.45;;;45.85;;
78860;SDS011;68211;45.774;15.892;2023-08-20T03:54:21;64.03;;;42.90;;
78860;SDS011;68211;45.774;15.892;2023-08-20T03:56:47;66.68;;;45.22;;
78860;SDS011;68211;45.774;15.892;2023-08-20T03:59:14;75.90;;;48.03;;
78860;SDS011;68211;45.774;15.892;2023-08-20T04:01:40;73.13;;;45.75;;
78860;SDS011;68211;45.774;15.892;2023-08-20T04:04:08;80.72;;;49.83;;
78860;SDS011;68211;45.774;15.892;2023-08-20T04:06:35;69.95;;;46.25;;
78860;SDS011;68211;45.774;15.892;2023-08-20T04:09:01;63.67;;;44.88;;
78860;SDS011;68211;45.774;15.892;2023-08-20T04:11:28;74.95;;;47.45;;
78860;SDS011;68211;45.774;15.892;2023-08-20T04:13:54;67.20;;;44.80;;
78860;SDS011;68211;45.774;15.892;2023-08-20T04:16:21;67.85;;;46.28;;
78860;SDS011;68211;45.774;15.892;2023-08-20T04:18:47;69.60;;;47.92;;
78860;SDS011;68211;45.774;15.892;2023-08-20T04:21:15;72.60;;;44.60;;
78860;SDS011;68211;45.774;15.892;2023-08-20T04:23:42;77.53;;;45.88;;
78860;SDS011;68211;45.774;15.892;2023-08-20T04:26:08;64.35;;;45.58;;
78860;SDS011;68211;45.774;15.892;2023-08-20T04:28:35;76.47;;;43.25;;
78860;SDS011;68211;45.774;15.892;2023-08-20T04:31:01;64.30;;;44.60;;
78860;SDS011;68211;45.774;15.892;2023-08-20T04:33:28;68.93;;;46.40;;
78860;SDS011;68211;45.774;15.892;2023-08-20T04:35:54;69.63;;;48.35;;
78860;SDS011;68211;45.774;15.892;2023-08-20T04:38:22;72.43;;;46.50;;
78860;SDS011;68211;45.774;15.892;2023-08-20T04:40:48;64.35;;;45.28;;
78860;SDS011;68211;45.774;15.892;2023-08-20T04:43:15;78.00;;;49.95;;
78860;SDS011;68211;45.774;15.892;2023-08-20T04:45:42;69.40;;;48.15;;
78860;SDS011;68211;45.774;15.892;2023-08-20T04:48:08;71.13;;;49.08;;
78860;SDS011;68211;45.774;15.892;2023-08-20T04:50:35;70.47;;;46.15;;
78860;SDS011;68211;45.774;15.892;2023-08-20T04:53:01;68.55;;;45.03;;
78860;SDS011;68211;45.774;15.892;2023-08-20T04:55:30;71.07;;;46.47;;
78860;SDS011;68211;45.774;15.892;2023-08-20T04:57:56;67.05;;;44.58;;
78860;SDS011;68211;45.774;15.892;2023-08-20T05:00:26;63.70;;;43.88;;
78860;SDS011;68211;45.774;15.892;2023-08-20T05:02:59;69.63;;;46.83;;
78860;SDS011;68211;45.774;15.892;2023-08-20T05:05:38;68.22;;;45.70;;
78860;SDS011;68211;45.774;15.892;2023-08-20T05:08:05;72.57;;;45.13;;
78860;SDS011;68211;45.774;15.892;2023-08-20T05:10:35;66.07;;;45.22;;
78860;SDS011;68211;45.774;15.892;2023-08-20T05:14:08;65.70;;;44.55;;
78860;SDS011;68211;45.774;15.892;2023-08-20T05:16:48;62.30;;;41.45;;
78860;SDS011;68211;45.774;15.892;2023-08-20T05:19:25;57.03;;;42.40;;
78860;SDS011;68211;45.774;15.892;2023-08-20T05:22:06;60.10;;;41.00;;
78860;SDS011;68211;45.774;15.892;2023-08-20T05:24:49;54.55;;;40.88;;
78860;SDS011;68211;45.774;15.892;2023-08-20T05:36:22;60.63;;;43.10;;
78860;SDS011;68211;45.774;15.892;2023-08-20T05:38:56;65.03;;;43.10;;
78860;SDS011;68211;45.774;15.892;2023-08-20T05:41:29;63.03;;;43.05;;
78860;SDS011;68211;45.774;15.892;2023-08-20T05:44:10;71.88;;;47.58;;
78860;SDS011;68211;45.774;15.892;2023-08-20T05:49:26;71.00;;;45.50;;
78860;SDS011;68211;45.774;15.892;2023-08-20T05:51:58;63.38;;;43.42;;
78860;SDS011;68211;45.774;15.892;2023-08-20T05:54:26;58.72;;;42.13;;
78860;SDS011;68211;45.774;15.892;2023-08-20T06:41:05;66.22;;;42.90;;
78860;SDS011;68211;45.774;15.892;2023-08-20T06:43:31;64.25;;;43.70;;
78860;SDS011;68211;45.774;15.892;2023-08-20T06:45:58;66.97;;;43.85;;
78860;SDS011;68211;45.774;15.892;2023-08-20T06:48:24;62.58;;;42.83;;
78860;SDS011;68211;45.774;15.892;2023-08-20T06:50:51;64.05;;;42.50;;
78860;SDS011;68211;45.774;15.892;2023-08-20T06:53:17;67.90;;;43.17;;
78860;SDS011;68211;45.774;15.892;2023-08-20T06:55:44;69.85;;;42.55;;
78860;SDS011;68211;45.774;15.892;2023-08-20T06:58:12;62.92;;;41.70;;
78860;SDS011;68211;45.774;15.892;2023-08-20T07:00:38;63.08;;;41.85;;
78860;SDS011;68211;45.774;15.892;2023-08-20T07:03:05;71.28;;;42.65;;
78860;SDS011;68211;45.774;15.892;2023-08-20T07:05:31;55.13;;;40.10;;
78860;SDS011;68211;45.774;15.892;2023-08-20T07:07:58;58.47;;;40.30;;
78860;SDS011;68211;45.774;15.892;2023-08-20T07:13:45;53.58;;;37.58;;
78860;SDS011;68211;45.774;15.892;2023-08-20T07:16:17;55.35;;;40.20;;
78860;SDS011;68211;45.774;15.892;2023-08-20T07:18:50;64.25;;;39.55;;
78860;SDS011;68211;45.774;15.892;2023-08-20T07:26:58;53.20;;;38.72;;
78860;SDS011;68211;45.774;15.892;2023-08-20T07:43:16;46.95;;;34.75;;
78860;SDS011;68211;45.774;15.892;2023-08-20T07:45:50;47.07;;;34.80;;
78860;SDS011;68211;45.774;15.892;2023-08-20T07:48:19;49.60;;;33.15;;
78860;SDS011;68211;45.774;15.892;2023-08-20T07:50:46;47.13;;;33.47;;
78860;SDS011;68211;45.774;15.892;2023-08-20T07:53:12;53.50;;;35.38;;
78860;SDS011;68211;45.774;15.892;2023-08-20T07:55:39;52.00;;;33.60;;
78860;SDS011;68211;45.774;15.892;2023-08-20T07:58:06;49.40;;;33.47;;
78860;SDS011;68211;45.774;15.892;2023-08-20T08:00:34;49.40;;;33.35;;
78860;SDS011;68211;45.774;15.892;2023-08-20T08:03:00;58.70;;;33.77;;
78860;SDS011;68211;45.774;15.892;2023-08-20T08:05:27;47.90;;;33.05;;
78860;SDS011;68211;45.774;15.892;2023-08-20T08:07:54;43.22;;;31.00;;
78860;SDS011;68211;45.774;15.892;2023-08-20T08:10:20;39.58;;;31.52;;
78860;SDS011;68211;45.774;15.892;2023-08-20T08:12:47;45.13;;;32.45;;
78860;SDS011;68211;45.774;15.892;2023-08-20T08:15:14;41.42;;;31.38;;
78860;SDS011;68211;45.774;15.892;2023-08-20T08:17:42;47.38;;;33.38;;
78860;SDS011;68211;45.774;15.892;2023-08-20T08:20:14;43.47;;;31.98;;
78860;SDS011;68211;45.774;15.892;2023-08-20T08:22:41;50.05;;;32.30;;
78860;SDS011;68211;45.774;15.892;2023-08-20T08:25:07;45.67;;;32.25;;
78860;SDS011;68211;45.774;15.892;2023-08-20T08:27:34;54.40;;;34.25;;
78860;SDS011;68211;45.774;15.892;2023-08-20T08:30:15;46.08;;;32.28;;
78860;SDS011;68211;45.774;15.892;2023-08-20T08:32:43;42.80;;;32.35;;
78860;SDS011;68211;45.774;15.892;2023-08-20T08:35:10;43.58;;;31.38;;
78860;SDS011;68211;45.774;15.892;2023-08-20T08:37:37;52.83;;;32.97;;
78860;SDS011;68211;45.774;15.892;2023-08-20T08:40:04;45.75;;;32.72;;
78860;SDS011;68211;45.774;15.892;2023-08-20T08:42:32;44.53;;;30.35;;
78860;SDS011;68211;45.774;15.892;2023-08-20T08:44:59;51.97;;;32.35;;
78860;SDS011;68211;45.774;15.892;2023-08-20T08:47:25;45.10;;;28.63;;
78860;SDS011;68211;45.774;15.892;2023-08-20T08:49:54;39.13;;;27.98;;
78860;SDS011;68211;45.774;15.892;2023-08-20T08:52:24;38.75;;;28.95;;
78860;SDS011;68211;45.774;15.892;2023-08-20T08:54:53;41.03;;;29.00;;
78860;SDS011;68211;45.774;15.892;2023-08-20T08:57:19;41.38;;;30.00;;
78860;SDS011;68211;45.774;15.892;2023-08-20T08:59:46;38.90;;;28.40;;
78860;SDS011;68211;45.774;15.892;2023-08-20T09:02:13;37.53;;;27.92;;
78860;SDS011;68211;45.774;15.892;2023-08-20T09:04:43;38.85;;;26.60;;
78860;SDS011;68211;45.774;15.892;2023-08-20T09:07:12;41.53;;;28.80;;
78860;SDS011;68211;45.774;15.892;2023-08-20T09:09:41;39.08;;;26.48;;
78860;SDS011;68211;45.774;15.892;2023-08-20T09:12:13;37.35;;;27.35;;
78860;SDS011;68211;45.774;15.892;2023-08-20T09:14:40;35.70;;;26.23;;
78860;SDS011;68211;45.774;15.892;2023-08-20T09:17:10;34.25;;;25.33;;
78860;SDS011;68211;45.774;15.892;2023-08-20T09:19:37;42.20;;;24.60;;
78860;SDS011;68211;45.774;15.892;2023-08-20T09:22:04;35.88;;;24.85;;
78860;SDS011;68211;45.774;15.892;2023-08-20T09:24:33;33.25;;;23.65;;
78860;SDS011;68211;45.774;15.892;2023-08-20T09:27:03;37.83;;;26.65;;
78860;SDS011;68211;45.774;15.892;2023-08-20T09:29:31;33.05;;;23.65;;
78860;SDS011;68211;45.774;15.892;2023-08-20T09:32:00;35.78;;;24.73;;
78860;SDS011;68211;45.774;15.892;2023-08-20T09:34:31;33.28;;;23.83;;
78860;SDS011;68211;45.774;15.892;2023-08-20T09:37:01;36.70;;;24.75;;
78860;SDS011;68211;45.774;15.892;2023-08-20T09:39:29;34.25;;;24.30;;
78860;SDS011;68211;45.774;15.892;2023-08-20T09:41:57;33.88;;;24.95;;
78860;SDS011;68211;45.774;15.892;2023-08-20T09:44:26;39.47;;;25.38;;
78860;SDS011;68211;45.774;15.892;2023-08-20T09:46:53;34.50;;;26.00;;
78860;SDS011;68211;45.774;15.892;2023-08-20T09:49:22;41.20;;;25.42;;
78860;SDS011;68211;45.774;15.892;2023-08-20T09:51:50;32.70;;;25.55;;
78860;SDS011;68211;45.774;15.892;2023-08-20T09:54:19;39.90;;;25.90;;
78860;SDS011;68211;45.774;15.892;2023-08-20T09:56:50;35.33;;;24.77;;
78860;SDS011;68211;45.774;15.892;2023-08-20T09:59:26;38.15;;;26.35;;
78860;SDS011;68211;45.774;15.892;2023-08-20T10:04:48;32.78;;;24.48;;
78860;SDS011;68211;45.774;15.892;2023-08-20T10:07:15;34.95;;;25.00;;
78860;SDS011;68211;45.774;15.892;2023-08-20T10:09:42;32.55;;;24.80;;
78860;SDS011;68211;45.774;15.892;2023-08-20T10:12:13;42.30;;;25.30;;
78860;SDS011;68211;45.774;15.892;2023-08-20T10:14:51;37.40;;;25.00;;
78860;SDS011;68211;45.774;15.892;2023-08-20T10:17:35;33.47;;;23.27;;
78860;SDS011;68211;45.774;15.892;2023-08-20T10:20:08;54.03;;;24.75;;
78860;SDS011;68211;45.774;15.892;2023-08-20T10:22:39;34.20;;;23.70;;
78860;SDS011;68211;45.774;15.892;2023-08-20T10:25:11;37.97;;;24.55;;
78860;SDS011;68211;45.774;15.892;2023-08-20T10:33:59;34.88;;;24.83;;
78860;SDS011;68211;45.774;15.892;2023-08-20T10:36:26;43.43;;;24.07;;
78860;SDS011;68211;45.774;15.892;2023-08-20T10:38:53;31.92;;;23.40;;
78860;SDS011;68211;45.774;15.892;2023-08-20T10:41:35;32.15;;;24.20;;
78860;SDS011;68211;45.774;15.892;2023-08-20T10:50:11;37.25;;;23.23;;
78860;SDS011;68211;45.774;15.892;2023-08-20T11:24:15;31.17;;;19.92;;
78860;SDS011;68211;45.774;15.892;2023-08-20T11:29:03;29.60;;;19.95;;
78860;SDS011;68211;45.774;15.892;2023-08-20T11:29:57;25.33;;;19.27;;
78860;SDS011;68211;45.774;15.892;2023-08-20T11:37:21;23.85;;;17.52;;
78860;SDS011;68211;45.774;15.892;2023-08-20T11:39:51;31.67;;;17.92;;
78860;SDS011;68211;45.774;15.892;2023-08-20T11:42:24;22.92;;;18.08;;
78860;SDS011;68211;45.774;15.892;2023-08-20T11:44:56;27.92;;;17.30;;
78860;SDS011;68211;45.774;15.892;2023-08-20T11:47:23;28.50;;;17.27;;
78860;SDS011;68211;45.774;15.892;2023-08-20T11:50:03;24.40;;;16.55;;
78860;SDS011;68211;45.774;15.892;2023-08-20T11:52:31;27.77;;;16.35;;
78860;SDS011;68211;45.774;15.892;2023-08-20T11:55:01;28.23;;;17.27;;
78860;SDS011;68211;45.774;15.892;2023-08-20T11:57:28;36.38;;;23.65;;
78860;SDS011;68211;45.774;15.892;2023-08-20T11:59:59;33.92;;;22.73;;
78860;SDS011;68211;45.774;15.892;2023-08-20T12:02:29;29.67;;;21.88;;
78860;SDS011;68211;45.774;15.892;2023-08-20T12:05:10;33.55;;;22.55;;
78860;SDS011;68211;45.774;15.892;2023-08-20T12:07:53;30.10;;;21.20;;
78860;SDS011;68211;45.774;15.892;2023-08-20T12:10:41;29.98;;;21.02;;
78860;SDS011;68211;45.774;15.892;2023-08-20T12:13:24;33.13;;;23.40;;
78860;SDS011;68211;45.774;15.892;2023-08-20T12:16:03;30.95;;;21.23;;
78860;SDS011;68211;45.774;15.892;2023-08-20T12:18:30;31.52;;;22.05;;
78860;SDS011;68211;45.774;15.892;2023-08-20T12:21:01;33.42;;;23.02;;
78860;SDS011;68211;45.774;15.892;2023-08-20T12:23:45;31.15;;;21.52;;
78860;SDS011;68211;45.774;15.892;2023-08-20T12:26:34;28.20;;;21.58;;
78860;SDS011;68211;45.774;15.892;2023-08-20T12:29:02;36.80;;;22.37;;
78860;SDS011;68211;45.774;15.892;2023-08-20T12:31:34;31.98;;;20.88;;
78860;SDS011;68211;45.774;15.892;2023-08-20T12:37:05;33.03;;;22.42;;
78860;SDS011;68211;45.774;15.892;2023-08-20T12:49:02;35.97;;;21.65;;
78860;SDS011;68211;45.774;15.892;2023-08-20T12:51:35;33.40;;;20.50;;
78860;SDS011;68211;45.774;15.892;2023-08-20T12:54:19;36.65;;;21.80;;
78860;SDS011;68211;45.774;15.892;2023-08-20T12:56:49;33.03;;;21.33;;
78860;SDS011;68211;45.774;15.892;2023-08-20T12:59:18;41.38;;;21.25;;
78860;SDS011;68211;45.774;15.892;2023-08-20T13:02:03;31.90;;;20.88;;
78860;SDS011;68211;45.774;15.892;2023-08-20T13:04:34;35.78;;;21.08;;
78860;SDS011;68211;45.774;15.892;2023-08-20T13:56:03;31.52;;;19.35;;
78860;SDS011;68211;45.774;15.892;2023-08-20T14:28:58;25.58;;;18.60;;
78860;SDS011;68211;45.774;15.892;2023-08-20T14:31:27;30.90;;;19.88;;
78860;SDS011;68211;45.774;15.892;2023-08-20T14:46:15;41.55;;;21.98;;
78860;SDS011;68211;45.774;15.892;2023-08-20T14:48:57;43.50;;;22.02;;
78860;SDS011;68211;45.774;15.892;2023-08-20T14:52:26;50.17;;;22.55;;
78860;SDS011;68211;45.774;15.892;2023-08-20T14:54:54;43.40;;;22.40;;
78860;SDS011;68211;45.774;15.892;2023-08-20T14:57:22;33.13;;;21.85;;
78860;SDS011;68211;45.774;15.892;2023-08-20T14:59:52;30.10;;;21.98;;
78860;SDS011;68211;45.774;15.892;2023-08-20T15:02:23;42.88;;;24.30;;
78860;SDS011;68211;45.774;15.892;2023-08-20T15:04:50;31.60;;;23.40;;
78860;SDS011;68211;45.774;15.892;2023-08-20T15:07:17;34.42;;;22.77;;
78860;SDS011;68211;45.774;15.892;2023-08-20T15:09:44;34.40;;;22.10;;
78860;SDS011;68211;45.774;15.892;2023-08-20T15:12:19;32.40;;;21.80;;
78860;SDS011;68211;45.774;15.892;2023-08-20T15:15:20;30.63;;;22.27;;
78860;SDS011;68211;45.774;15.892;2023-08-20T15:21:00;27.80;;;22.13;;
78860;SDS011;68211;45.774;15.892;2023-08-20T15:23:42;40.80;;;22.15;;
78860;SDS011;68211;45.774;15.892;2023-08-20T15:26:12;34.28;;;21.58;;
78860;SDS011;68211;45.774;15.892;2023-08-20T15:28:53;33.25;;;22.35;;
78860;SDS011;68211;45.774;15.892;2023-08-20T15:31:29;52.22;;;21.88;;
78860;SDS011;68211;45.774;15.892;2023-08-20T15:34:03;47.42;;;21.55;;
78860;SDS011;68211;45.774;15.892;2023-08-20T15:36:31;34.33;;;20.52;;
78860;SDS011;68211;45.774;15.892;2023-08-20T15:38:58;37.80;;;21.87;;
78860;SDS011;68211;45.774;15.892;2023-08-20T15:41:24;35.17;;;22.08;;
78860;SDS011;68211;45.774;15.892;2023-08-20T15:43:59;44.45;;;23.10;;
78860;SDS011;68211;45.774;15.892;2023-08-20T15:46:26;35.85;;;22.15;;
78860;SDS011;68211;45.774;15.892;2023-08-20T15:48:53;31.25;;;21.27;;
78860;SDS011;68211;45.774;15.892;2023-08-20T15:51:20;33.33;;;21.80;;
78860;SDS011;68211;45.774;15.892;2023-08-20T15:53:48;37.45;;;22.55;;
78860;SDS011;68211;45.774;15.892;2023-08-20T15:56:17;47.53;;;23.70;;
78860;SDS011;68211;45.774;15.892;2023-08-20T15:58:44;40.55;;;22.67;;
78860;SDS011;68211;45.774;15.892;2023-08-20T16:01:11;42.42;;;23.02;;
78860;SDS011;68211;45.774;15.892;2023-08-20T16:03:37;37.15;;;23.13;;
78860;SDS011;68211;45.774;15.892;2023-08-20T16:06:04;42.47;;;22.00;;
78860;SDS011;68211;45.774;15.892;2023-08-20T16:08:31;39.10;;;22.85;;
78860;SDS011;68211;45.774;15.892;2023-08-20T16:11:03;44.47;;;22.98;;
78860;SDS011;68211;45.774;15.892;2023-08-20T16:13:43;35.10;;;22.48;;
78860;SDS011;68211;45.774;15.892;2023-08-20T16:16:13;35.33;;;22.30;;
78860;SDS011;68211;45.774;15.892;2023-08-20T16:24:34;37.15;;;22.88;;
78860;SDS011;68211;45.774;15.892;2023-08-20T16:27:05;33.42;;;21.83;;
78860;SDS011;68211;45.774;15.892;2023-08-20T16:32:50;32.50;;;21.02;;
78860;SDS011;68211;45.774;15.892;2023-08-20T16:35:28;35.33;;;21.65;;
78860;SDS011;68211;45.774;15.892;2023-08-20T16:37:55;30.30;;;22.15;;
78860;SDS011;68211;45.774;15.892;2023-08-20T16:40:22;43.03;;;22.02;;
78860;SDS011;68211;45.774;15.892;2023-08-20T16:42:53;39.58;;;22.58;;
78860;SDS011;68211;45.774;15.892;2023-08-20T16:45:23;39.08;;;22.42;;
78860;SDS011;68211;45.774;15.892;2023-08-20T16:49:30;35.80;;;23.13;;
78860;SDS011;68211;45.774;15.892;2023-08-20T16:51:08;41.20;;;23.33;;
78860;SDS011;68211;45.774;15.892;2023-08-20T16:53:40;41.47;;;23.65;;
78860;SDS011;68211;45.774;15.892;2023-08-20T16:56:16;39.50;;;22.58;;
78860;SDS011;68211;45.774;15.892;2023-08-20T16:58:44;38.20;;;23.63;;
78860;SDS011;68211;45.774;15.892;2023-08-20T17:01:11;32.33;;;22.47;;
78860;SDS011;68211;45.774;15.892;2023-08-20T17:03:37;44.53;;;24.15;;
78860;SDS011;68211;45.774;15.892;2023-08-20T17:06:04;29.60;;;22.75;;
78860;SDS011;68211;45.774;15.892;2023-08-20T17:08:34;33.90;;;23.70;;
78860;SDS011;68211;45.774;15.892;2023-08-20T17:11:04;39.90;;;23.60;;
78860;SDS011;68211;45.774;15.892;2023-08-20T17:13:31;35.03;;;24.45;;
78860;SDS011;68211;45.774;15.892;2023-08-20T17:16:06;43.42;;;23.52;;
78860;SDS011;68211;45.774;15.892;2023-08-20T17:18:33;38.30;;;23.27;;
78860;SDS011;68211;45.774;15.892;2023-08-20T17:21:00;30.52;;;23.60;;
78860;SDS011;68211;45.774;15.892;2023-08-20T17:23:27;41.55;;;24.13;;
78860;SDS011;68211;45.774;15.892;2023-08-20T17:25:54;37.47;;;23.20;;
78860;SDS011;68211;45.774;15.892;2023-08-20T17:28:20;31.55;;;23.42;;
78860;SDS011;68211;45.774;15.892;2023-08-20T17:30:47;33.33;;;24.25;;
78860;SDS011;68211;45.774;15.892;2023-08-20T17:33:15;34.97;;;24.00;;
78860;SDS011;68211;45.774;15.892;2023-08-20T17:35:41;51.53;;;26.20;;
78860;SDS011;68211;45.774;15.892;2023-08-20T17:38:08;50.17;;;26.88;;
78860;SDS011;68211;45.774;15.892;2023-08-20T17:40:34;44.67;;;25.95;;
78860;SDS011;68211;45.774;15.892;2023-08-20T17:43:01;59.47;;;28.58;;
78860;SDS011;68211;45.774;15.892;2023-08-20T17:45:27;48.47;;;26.73;;
78860;SDS011;68211;45.774;15.892;2023-08-20T17:47:54;54.25;;;27.25;;
78860;SDS011;68211;45.774;15.892;2023-08-20T17:50:22;37.45;;;26.65;;
78860;SDS011;68211;45.774;15.892;2023-08-20T17:52:50;48.35;;;28.08;;
78860;SDS011;68211;45.774;15.892;2023-08-20T17:55:17;43.92;;;25.90;;
78860;SDS011;68211;45.774;15.892;2023-08-20T17:57:43;40.17;;;26.05;;
78860;SDS011;68211;45.774;15.892;2023-08-20T18:00:10;41.00;;;26.92;;
78860;SDS011;68211;45.774;15.892;2023-08-20T18:02:37;43.05;;;26.80;;
78860;SDS011;68211;45.774;15.892;2023-08-20T18:05:04;47.35;;;29.17;;
78860;SDS011;68211;45.774;15.892;2023-08-20T18:07:36;35.97;;;28.55;;
78860;SDS011;68211;45.774;15.892;2023-08-20T18:10:06;48.60;;;29.43;;
78860;SDS011;68211;45.774;15.892;2023-08-20T18:12:35;46.53;;;29.30;;
78860;SDS011;68211;45.774;15.892;2023-08-20T18:15:02;50.58;;;29.63;;
78860;SDS011;68211;45.774;15.892;2023-08-20T18:17:29;44.67;;;29.55;;
78860;SDS011;68211;45.774;15.892;2023-08-20T18:19:57;48.20;;;32.80;;
78860;SDS011;68211;45.774;15.892;2023-08-20T18:22:24;41.47;;;31.65;;
78860;SDS011;68211;45.774;15.892;2023-08-20T18:25:10;45.13;;;29.98;;
78860;SDS011;68211;45.774;15.892;2023-08-20T18:27:41;43.97;;;30.83;;
78860;SDS011;68211;45.774;15.892;2023-08-20T18:30:08;41.42;;;28.50;;
78860;SDS011;68211;45.774;15.892;2023-08-20T18:32:37;42.13;;;29.00;;
78860;SDS011;68211;45.774;15.892;2023-08-20T18:35:05;48.08;;;28.67;;